KGPZ

Grand Rapids / Itasca Co-Gordon Newstrom Field Airport

Grand Rapids, Minnesota, USA
METAR KGPZ 200456Z AUTO 00000KT 10SM FEW120 18/14 A3003 RMK AO2 SLP168 T01780144
Observed Flight Rules
Jun-20 @ 04:56 UTC (43 minutes ago) Visual Flight Rules
Visibility Clouds
10 miles
  • Few at 12,000' AGL
Temperatures Readings
Current 18°C / 64°F
Dewpoint 14°C / 57°F
Humidity 78%
Altimeter 30.03" Hg
Pressure 1016.8 hPa
Elevation 413
METAR KGPZ 200456Z AUTO 00000KT 10SM FEW120 18/14 A3003 RMK AO2 SLP168 T01780144
Observed Flight Rules
Jun-20 @ 04:56 UTC
(43 minutes ago)
VFR
Clouds
  • Few at 12,000' AGL
Temperature Dewpoint
18°C / 64°F 14°C / 57°F
Humidity Altimeter Pressure
78% 30.03" Hg 1016.8 hPa